WetterOnline ( https://www.wetteronline.ch )

Wetter aktuell Seehausen (Altmark)

Aktuelles Wetter: Seehausen (23m)

6-stündlich | Neueste Meldungen
Ortszeit Temperatur Wetter
Do, 05.12. 13:00 3.5° C wolkenlos
Do, 05.12. 7:00 -3.3° C Nebel
Do, 05.12. 1:00 -2.5° C wolkenlos
Mi, 04.12. 19:00 0.1° C leicht bewölkt
Mi, 04.12. 13:00 5.6° C bedeckt
Mi, 04.12. 7:00 4.4° C bedeckt
Mi, 04.12. 1:00 6.0° C bedeckt
Di, 03.12. 19:00 6.0° C bedeckt
Ortszeit Temperatur Wetter
Do, 05.12. 17:30 2.3° C wolkenlos
Do, 05.12. 17:20 2.3° C wolkenlos
Do, 05.12. 17:10 2.3° C wolkenlos
Do, 05.12. 17:00 1.7° C wolkenlos
Do, 05.12. 16:50 1.7° C wolkenlos
Do, 05.12. 16:40 1.3° C fast wolkenlos
Do, 05.12. 16:30 1.7° C leicht bewölkt
Do, 05.12. 16:00 2.4° C wolkig
Do, 05.12. 15:30 3.4° C wolkig
Do, 05.12. 15:00 3.8° C leicht bewölkt
Do, 05.12. 14:30 4.3° C leicht bewölkt
Do, 05.12. 14:00 4.4° C wolkenlos
Ortszeit Relative Feuchte Sichtweite
Do, 05.12. 13:00 78% 13 km
Do, 05.12. 7:00 97% 100 m
Do, 05.12. 1:00 96% 4.6 km
Mi, 04.12. 19:00 97% 4.9 km
Mi, 04.12. 13:00 82% 15 km
Mi, 04.12. 7:00 85% 8 km
Mi, 04.12. 1:00 82% 10 km
Di, 03.12. 19:00 89% 19 km
Ortszeit Relative Feuchte Sichtweite
Do, 05.12. 17:30 81% 18 km
Do, 05.12. 17:20 81% -
Do, 05.12. 17:10 81% -
Do, 05.12. 17:00 85% 6 km
Do, 05.12. 16:50 85% -
Do, 05.12. 16:40 86% -
Do, 05.12. 16:30 85% 14 km
Do, 05.12. 16:00 82% 10 km
Do, 05.12. 15:30 78% 12 km
Do, 05.12. 15:00 76% 16 km
Do, 05.12. 14:30 73% 15 km
Do, 05.12. 14:00 73% 13 km
Ortszeit Niederschlagsmenge Niederschlagsart
Do, 05.12. 13:00 0.0 l/m2 in 6 Std. -
Do, 05.12. 7:00 0.0 l/m2 in 12 Std. -
Do, 05.12. 1:00 0.0 l/m2 in 6 Std. -
Mi, 04.12. 19:00 0.0 l/m2 in 12 Std. -
Mi, 04.12. 13:00 0.0 l/m2 in 6 Std. -
Mi, 04.12. 7:00 0.0 l/m2 in 12 Std. -
Mi, 04.12. 1:00 0.0 l/m2 in 6 Std. -
Di, 03.12. 19:00 0.1 l/m2 in 12 Std. Sprühregen
Ortszeit Niederschlagsmenge Niederschlagsart
Do, 05.12. 17:30 0.0 l/m2 in 1 Std. -
Do, 05.12. 17:20 keine Meldung -
Do, 05.12. 17:10 keine Meldung -
Do, 05.12. 17:00 0.0 l/m2 in 1 Std. -
Do, 05.12. 16:50 keine Meldung -
Do, 05.12. 16:40 keine Meldung -
Do, 05.12. 16:30 0.0 l/m2 in 1 Std. -
Do, 05.12. 16:00 0.0 l/m2 in 1 Std. -
Do, 05.12. 15:30 0.0 l/m2 in 1 Std. -
Do, 05.12. 15:00 0.0 l/m2 in 1 Std. -
Do, 05.12. 14:30 0.0 l/m2 in 1 Std. -
Do, 05.12. 14:00 0.0 l/m2 in 1 Std. -
Ortszeit Stärke Spitze Richtung
km/h Bft. km/h Grad Sektor
Do, 05.12. 13:00 11 2 22 200° S
Do, 05.12. 7:00 0 0 11 - -
Do, 05.12. 1:00 0 0 11 - -
Mi, 04.12. 19:00 2 1 22 170° S
Mi, 04.12. 13:00 13 3 33 260° W
Mi, 04.12. 7:00 14 3 32 240° SW
Mi, 04.12. 1:00 18 3 32 240° SW
Di, 03.12. 19:00 13 3 24 230° SW
Ortszeit Stärke Spitze Richtung
km/h Bft. km/h Grad Sektor
Do, 05.12. 17:30 9 2 19 210° SW
Do, 05.12. 17:20 9 2 - 210° SW
Do, 05.12. 17:10 9 2 - 210° SW
Do, 05.12. 17:00 7 2 14 200° S
Do, 05.12. 16:50 7 2 - 200° S
Do, 05.12. 16:40 7 2 - 190° S
Do, 05.12. 16:30 7 2 14 190° S
Do, 05.12. 16:00 7 2 14 200° S
Do, 05.12. 15:30 6 1 15 210° SW
Do, 05.12. 15:00 7 2 19 230° SW
Do, 05.12. 14:30 9 2 19 230° SW
Do, 05.12. 14:00 9 2 22 220° SW
Ortszeit Untergrenze Bedeckung Gattung
total tief tief mittel hoch
Do, 05.12. 13:00 - 0/8 0/8 - - -
Do, 05.12. 7:00 <30 m 5/8 0/8 - - -
Do, 05.12. 1:00 - 0/8 0/8 - - -
Mi, 04.12. 19:00 12000 m 3/8 0/8 - - -
Mi, 04.12. 13:00 360 m 8/8 8/8 - - -
Mi, 04.12. 7:00 360 m 8/8 8/8 - - -
Mi, 04.12. 1:00 1170 m 8/8 8/8 - - -
Di, 03.12. 19:00 840 m 8/8 8/8 - - -
Ortszeit Bedeckungsgrad in Achtel und Wolkenuntergrenze
Do, 05.12. 17:30 keine Wolken
Do, 05.12. 17:20 keine Wolken
Do, 05.12. 17:10 keine Wolken
Do, 05.12. 17:00 keine Wolken
Do, 05.12. 16:50 keine Wolken
Do, 05.12. 16:40 1(10500m)
Do, 05.12. 16:30 4(10500m) 5(10500m)
Do, 05.12. 16:00 7(10500m)
Do, 05.12. 15:30 7(10500m) 7(12000m)
Do, 05.12. 15:00 3(9000m) 4(9000m)
Do, 05.12. 14:30 5(9000m)
Do, 05.12. 14:00 keine Wolken
Ortszeit Luftdruck NN (hPa) Tendenz (hPa in 3 Std.)
Do, 05.12. 13:00 1019 - 1,3
Do, 05.12. 7:00 1020 - 0,3
Do, 05.12. 1:00 1021 - 1,2
Mi, 04.12. 19:00 1022 - 0,5
Mi, 04.12. 13:00 1023 - 0,3
Mi, 04.12. 7:00 1023 - 0,2
Mi, 04.12. 1:00 1024 - 0,4
Di, 03.12. 19:00 1025 - 0,8
Ortszeit Luftdruck NN (hPa) Tendenz (hPa in 3 Std.)
Do, 05.12. 17:30 1018 - 0,6
Do, 05.12. 17:20 1018 keine Meldung
Do, 05.12. 17:10 1018 keine Meldung
Do, 05.12. 17:00 1018 - 0,6
Do, 05.12. 16:50 1018 keine Meldung
Do, 05.12. 16:40 1018 keine Meldung
Do, 05.12. 16:30 1018 - 0,7
Do, 05.12. 16:00 1018 - 0,5
Do, 05.12. 15:30 1018 - 1,1
Do, 05.12. 15:00 1018 - 1,0
Do, 05.12. 14:30 1018 - 0,9
Do, 05.12. 14:00 1018 - 1,4
Ortszeit Schneehöhe (cm)
Do, 05.12. 13:00 0
Do, 05.12. 7:00 0
Do, 05.12. 1:00 0
Mi, 04.12. 19:00 0
Mi, 04.12. 13:00 0
Mi, 04.12. 7:00 0
Mi, 04.12. 1:00 0
Di, 03.12. 19:00 0
Ortszeit Schneehöhe (cm)
Do, 05.12. 17:30 0
Do, 05.12. 17:20 0
Do, 05.12. 17:10 0
Do, 05.12. 17:00 0
Do, 05.12. 16:50 0
Do, 05.12. 16:40 0
Do, 05.12. 16:30 0
Do, 05.12. 16:00 0
Do, 05.12. 15:30 0
Do, 05.12. 15:00 0
Do, 05.12. 14:30 0
Do, 05.12. 14:00 0
Link zu dieser Seite / Seite empfehlen

Das Wetter in ...